This is the latest recevied weather packets stored in our database for station/object KD7CTY. If no packets are shown the sender has not sent any weather packets the latest 10 day(s).
| Time | Temp. | Humidity | Pressure | Rain* | Wind** | Luminosity | Snow |
|---|---|---|---|---|---|---|---|
| 1777747472 | 19.44° C | 64% | 1015.3 hPa | 0 mm | - | 877 W/m² | - |
| 1777747169 | 18.89° C | 67% | 1015.6 hPa | 0 mm | - | 886 W/m² | - |
| 1777746865 | 18.89° C | 65% | 1015.3 hPa | 0 mm | - | 881 W/m² | - |
| 1777746561 | 18.89° C | 65% | 1015.3 hPa | 0 mm | - | 865 W/m² | - |
| 1777746257 | 18.89° C | 66% | 1015.3 hPa | 0 mm | - | 857 W/m² | - |
| 1777745953 | 18.89° C | 66% | 1015.3 hPa | 0 mm | - | 823 W/m² | - |
| 1777745651 | 18.33° C | 67% | 1015.6 hPa | 0 mm | - | 830 W/m² | - |
| 1777745349 | 18.33° C | 68% | 1015.6 hPa | 0 mm | - | 815 W/m² | - |
| 1777745046 | 18.89° C | 67% | 1015.6 hPa | 0 mm | - | 804 W/m² | - |
| 1777744742 | 17.78° C | 68% | 1015.7 hPa | 0 mm | - | 803 W/m² | - |
| 1777744436 | 18.33° C | 67% | 1015.6 hPa | 0 mm | - | 796 W/m² | - |
| 1777744133 | 17.78° C | 69% | 1015.5 hPa | 0 mm | - | 760 W/m² | - |
| 1777743830 | 17.78° C | 70% | 1015.6 hPa | 0 mm | - | 723 W/m² | - |
| 1777743527 | 17.22° C | 72% | 1015.9 hPa | 0 mm | - | 693 W/m² | - |
| 1777743224 | 17.22° C | 72% | 1015.7 hPa | 0 mm | - | 675 W/m² | - |
| 1777742922 | 16.67° C | 73% | 1015.6 hPa | 0 mm | - | 691 W/m² | - |
| 1777742619 | 16.67° C | 74% | 1015.9 hPa | 0 mm | - | 706 W/m² | - |
| 1777742314 | 16.67° C | 74% | 1016 hPa | 0 mm | - | 719 W/m² | - |
| 1777742011 | 16.67° C | 74% | 1015.9 hPa | 0 mm | - | 701 W/m² | - |
| 1777741709 | 16.11° C | 76% | 1016 hPa | 0 mm | - | 661 W/m² | - |
| 1777741405 | 15.56° C | 76% | 1016.1 hPa | 0 mm | - | 656 W/m² | - |
| 1777741101 | 15.56° C | 77% | 1016 hPa | 0 mm | - | 627 W/m² | - |
| 1777740798 | 15.56° C | 78% | 1015.9 hPa | 0 mm | - | 601 W/m² | - |
| 1777740495 | 15° C | 79% | 1016 hPa | 0 mm | - | 623 W/m² | - |
| 1777740192 | 15° C | 81% | 1015.9 hPa | 0 mm | - | 350 W/m² | - |
* Rain latest hour (hover to see other rain measurements)
** Current wind speed in m/s (hover to see current wind gust speed)